Flight Track Log - Related Links

Times and Time Zones

All times are in EDT time to prevent confusion due to time zone crossing. See the QLK115 flight status page for this flight to view local times or setup timezone preferences in your user account.

Time Position Orientation Groundspeed Altitude Reporting Facility
EDT Latitude Longitude Course Direction KTS MPH feet Rate Location/Type
Fri 06:36:00 AM -30.5983 152.8910 215° Southwest  Level FlightAware Approximate
Fri 06:37:00 AM -30.6538 152.8458 215° Southwest  Level FlightAware Approximate
Fri 06:38:00 AM -30.7093 152.8005 215° Southwest  Level FlightAware Approximate
Fri 06:39:00 AM -30.7647 152.7552 215° Southwest  Level FlightAware Approximate
Fri 06:40:00 AM -30.8202 152.7098 215° Southwest  Level FlightAware Approximate
Fri 06:41:00 AM -30.8756 152.6644 215° Southwest  Level FlightAware Approximate
Fri 06:42:00 AM -30.9310 152.6189 215° Southwest  Level FlightAware Approximate
Fri 06:43:00 AM -30.9865 152.5733 215° Southwest  Level FlightAware Approximate
Fri 06:44:00 AM -31.0418 152.5278 215° Southwest  Level FlightAware Approximate
Fri 06:45:00 AM -31.0972 152.4821 215° Southwest  Level FlightAware Approximate
Fri 06:46:00 AM -31.1526 152.4364 215° Southwest  Level FlightAware Approximate
Fri 06:47:00 AM -31.2079 152.3907 215° Southwest  Level FlightAware Approximate
Fri 06:48:00 AM -31.2632 152.3448 215° Southwest  Level FlightAware Approximate
Fri 06:49:00 AM -31.3185 152.2990 215° Southwest  Level FlightAware Approximate
Fri 06:50:00 AM -31.3738 152.2531 215° Southwest  Level FlightAware Approximate
Fri 06:51:00 AM -31.4291 152.2071 215° Southwest  Level FlightAware Approximate
Fri 06:52:00 AM -31.4844 152.1611 215° Southwest  Level FlightAware Approximate
Fri 06:53:00 AM -31.5396 152.1150 215° Southwest  Level FlightAware Approximate
Fri 06:54:00 AM -31.5948 152.0689 215° Southwest  Level FlightAware Approximate
Fri 06:55:00 AM -31.6500 152.0227 215° Southwest  Level FlightAware Approximate
Fri 06:56:00 AM -31.7052 151.9764 215° Southwest  Level FlightAware Approximate
Fri 06:57:00 AM -31.7604 151.9301 216° Southwest  Level FlightAware Approximate
Fri 06:58:00 AM -31.8156 151.8838 216° Southwest  Level FlightAware Approximate
Fri 06:59:00 AM -31.8648 151.8423 216° Southwest  Level FlightAware Approximate
Fri 07:00:00 AM -31.9199 151.7958 216° Southwest  Level FlightAware Approximate
Fri 07:01:00 AM -31.9750 151.7493 216° Southwest  Level FlightAware Approximate
Fri 07:02:00 AM -32.0301 151.7027 216° Southwest  Level FlightAware Approximate
Fri 07:03:00 AM -32.0851 151.6560 216° Southwest  Level FlightAware Approximate
Fri 07:04:00 AM -32.1402 151.6093 216° Southwest  Level FlightAware Approximate
Fri 07:05:00 AM -32.1952 151.5626 216° Southwest  Level FlightAware Approximate
Fri 07:06:00 AM -32.2502 151.5157 216° Southwest  Level FlightAware Approximate
Fri 07:07:00 AM -32.3052 151.4689 216° Southwest  Level FlightAware Approximate
Fri 07:08:00 AM -32.3602 151.4219 216° Southwest  Level FlightAware Approximate
Fri 07:09:00 AM -32.4151 151.3749 216° Southwest  Level FlightAware Approximate
Fri 07:10:00 AM -32.4701 151.3279 216° Southwest  Level FlightAware Approximate
Fri 07:11:00 AM -32.5250 151.2808 216° Southwest  Level FlightAware Approximate
Fri 07:12:00 AM -32.5864 151.2557 183° South  Level FlightAware Approximate
Fri 07:13:00 AM -32.6541 151.2520 183° South  Level FlightAware Approximate
Fri 07:14:00 AM -32.7218 151.2484 183° South  Level FlightAware Approximate
Fri 07:15:00 AM -32.7895 151.2447 183° South  Level FlightAware Approximate
Fri 07:16:00 AM -32.8573 151.2411 183° South  Level FlightAware Approximate
Fri 07:17:00 AM -32.9250 151.2374 183° South  Level FlightAware Approximate
Fri 07:18:00 AM -32.9927 151.2337 183° South  Level FlightAware Approximate
Fri 07:19:00 AM -33.0604 151.2301 183° South  Level FlightAware Approximate
Fri 07:20:00 AM -33.1281 151.2264 183° South  Level FlightAware Approximate
Fri 07:21:00 AM -33.1958 151.2227 183° South  Level FlightAware Approximate
Fri 07:22:00 AM -33.2635 151.2190 183° South  Level FlightAware Approximate
Fri 07:23:00 AM -33.3312 151.2153 183° South  Level FlightAware Approximate
Fri 07:24:00 AM -33.3989 151.2116 183° South  Level FlightAware Approximate
Fri 07:25:00 AM -33.4667 151.2078 183° South  Level FlightAware Approximate
Fri 07:26:00 AM -33.5344 151.2040 183° South  Level FlightAware Approximate
Fri 07:27:00 AM -33.6021 151.2001 183° South  Level FlightAware Approximate
Fri 07:28:00 AM -33.6698 151.1963 183° South  Level FlightAware Approximate
Fri 07:29:00 AM -33.7375 151.1925 183° South  Level FlightAware Approximate
Fri 07:30:00 AM -33.8052 151.1886 183° South  Level FlightAware Approximate
Fri 07:31:00 AM -33.8729 151.1848 183° South  Level FlightAware Approximate
Fri 07:32:00 AM -33.9406 151.1809 183° South  Level FlightAware Approximate
Fri 07:33:00 AM -33.9429 151.1808 183° South  Level FlightAware Approximate
Fri 07:34:00 AM -33.9461 151.1772 183° South  Level Estimated
Fri 07:35:00 AM -33.9429 151.1808 183° South  Level FlightAware Approximate
Fri 07:36:00 AM -33.9461 151.1772 183° South  Level Estimated
Fri 07:37:00 AM -33.9429 151.1808 183° South  Level FlightAware Approximate
Fri 07:38:00 AM -33.9461 151.1772 183° South  Level Estimated
Fri 07:39:00 AM -33.9429 151.1808 183° South  Level FlightAware Approximate
Fri 07:40:00 AM -33.9461 151.1772 183° South  Level Estimated
Fri 07:41:00 AM -33.9429 151.1808 183° South  Level FlightAware Approximate
Fri 07:42:00 AM -33.9461 151.1772 183° South  Level Estimated
Fri 07:43:00 AM -33.9429 151.1808 183° South  Level FlightAware Approximate
Fri 07:44:00 AM -33.9461 151.1772 183° South  Level Estimated
Fri 07:45:00 AM -33.9429 151.1808 183° South  Level FlightAware Approximate
Fri 07:46:00 AM -33.9461 151.1772 183° South  Level Estimated
Fri 07:47:00 AM -33.9429 151.1808 183° South  Level FlightAware Approximate
Fri 07:48:00 AM -33.9461 151.1772 183° South  Level Estimated

Login

Don't have an account? Register now (free) for customized features, flight alerts, and more!